Terminal Aerodrome Forecast
Issued by NWS Twin Cities, MN

Home | Current Version | Previous Version | Text Only | Print | Product List | Glossary Off
Versions: 1 2 3 4 5 6 7 8 9 10 11 12 13 14 15 16 17 18 19 20 21 22 23 24 25 26 27 28 29

767
FTUS43 KMPX 251659 AAB
TAFMSP
TAF AMD
KMSP 251659Z 2517/2618 07011KT P6SM OVC016
     FM251800 07012G20KT P6SM OVC020
     FM260000 05010KT P6SM OVC025
     FM260500 04007KT 6SM -RA BR OVC012
     FM260800 03007KT 4SM -DZ BR OVC007
     FM261500 04006KT P6SM OVC015=

USA.gov is the U.S. government's official web portal to all federal, state and local government web resources and services.